sensor_id;sensor_type;location;lat;lon;timestamp;P1;durP1;ratioP1;P2;durP2;ratioP2
11962;SDS011;62678;52.130;5.584;2023-05-14T00:00:56;20.58;;;16.35;;
11962;SDS011;62678;52.130;5.584;2023-05-14T00:03:23;24.23;;;16.77;;
11962;SDS011;62678;52.130;5.584;2023-05-14T00:05:50;25.48;;;17.95;;
11962;SDS011;62678;52.130;5.584;2023-05-14T00:08:18;23.60;;;17.63;;
11962;SDS011;62678;52.130;5.584;2023-05-14T00:10:45;25.00;;;17.45;;
11962;SDS011;62678;52.130;5.584;2023-05-14T00:13:12;22.92;;;17.23;;
11962;SDS011;62678;52.130;5.584;2023-05-14T00:15:38;22.40;;;17.75;;
11962;SDS011;62678;52.130;5.584;2023-05-14T00:18:05;20.63;;;16.98;;
11962;SDS011;62678;52.130;5.584;2023-05-14T00:20:36;29.83;;;18.33;;
11962;SDS011;62678;52.130;5.584;2023-05-14T00:23:02;22.73;;;17.05;;
11962;SDS011;62678;52.130;5.584;2023-05-14T00:25:31;23.77;;;17.20;;
11962;SDS011;62678;52.130;5.584;2023-05-14T00:27:57;22.27;;;17.02;;
11962;SDS011;62678;52.130;5.584;2023-05-14T00:30:24;23.67;;;17.05;;
11962;SDS011;62678;52.130;5.584;2023-05-14T00:32:51;22.70;;;17.77;;
11962;SDS011;62678;52.130;5.584;2023-05-14T00:35:18;22.83;;;17.77;;
11962;SDS011;62678;52.130;5.584;2023-05-14T00:37:45;26.60;;;18.02;;
11962;SDS011;62678;52.130;5.584;2023-05-14T00:40:12;24.63;;;18.05;;
11962;SDS011;62678;52.130;5.584;2023-05-14T00:42:41;25.33;;;17.63;;
11962;SDS011;62678;52.130;5.584;2023-05-14T00:45:08;24.92;;;18.92;;
11962;SDS011;62678;52.130;5.584;2023-05-14T00:47:36;31.10;;;18.73;;
11962;SDS011;62678;52.130;5.584;2023-05-14T00:50:04;25.05;;;18.70;;
11962;SDS011;62678;52.130;5.584;2023-05-14T00:52:34;26.17;;;19.60;;
11962;SDS011;62678;52.130;5.584;2023-05-14T00:55:03;22.88;;;18.67;;
11962;SDS011;62678;52.130;5.584;2023-05-14T00:57:31;27.23;;;19.10;;
11962;SDS011;62678;52.130;5.584;2023-05-14T00:59:59;27.55;;;19.27;;
11962;SDS011;62678;52.130;5.584;2023-05-14T01:02:26;23.40;;;18.50;;
11962;SDS011;62678;52.130;5.584;2023-05-14T01:04:53;24.63;;;18.02;;
11962;SDS011;62678;52.130;5.584;2023-05-14T01:07:22;23.65;;;18.27;;
11962;SDS011;62678;52.130;5.584;2023-05-14T01:09:57;29.88;;;19.65;;
11962;SDS011;62678;52.130;5.584;2023-05-14T01:12:29;24.58;;;18.27;;
11962;SDS011;62678;52.130;5.584;2023-05-14T01:15:03;26.08;;;17.88;;
11962;SDS011;62678;52.130;5.584;2023-05-14T01:17:37;27.17;;;17.88;;
11962;SDS011;62678;52.130;5.584;2023-05-14T01:20:07;29.10;;;19.48;;
11962;SDS011;62678;52.130;5.584;2023-05-14T01:22:36;26.30;;;19.00;;
11962;SDS011;62678;52.130;5.584;2023-05-14T01:25:03;25.80;;;19.13;;
11962;SDS011;62678;52.130;5.584;2023-05-14T01:27:34;26.70;;;18.08;;
11962;SDS011;62678;52.130;5.584;2023-05-14T01:30:08;22.77;;;17.88;;
11962;SDS011;62678;52.130;5.584;2023-05-14T01:32:42;26.42;;;18.10;;
11962;SDS011;62678;52.130;5.584;2023-05-14T01:35:13;24.00;;;18.23;;
11962;SDS011;62678;52.130;5.584;2023-05-14T01:37:41;24.17;;;18.35;;
11962;SDS011;62678;52.130;5.584;2023-05-14T01:40:10;24.70;;;18.25;;
11962;SDS011;62678;52.130;5.584;2023-05-14T01:42:39;22.42;;;18.35;;
11962;SDS011;62678;52.130;5.584;2023-05-14T01:45:07;22.65;;;18.83;;
11962;SDS011;62678;52.130;5.584;2023-05-14T01:47:35;25.10;;;18.20;;
11962;SDS011;62678;52.130;5.584;2023-05-14T01:50:01;24.83;;;18.15;;
11962;SDS011;62678;52.130;5.584;2023-05-14T01:52:28;29.33;;;19.08;;
11962;SDS011;62678;52.130;5.584;2023-05-14T01:54:56;26.90;;;18.13;;
11962;SDS011;62678;52.130;5.584;2023-05-14T01:57:24;24.42;;;18.73;;
11962;SDS011;62678;52.130;5.584;2023-05-14T01:59:50;28.88;;;19.38;;
11962;SDS011;62678;52.130;5.584;2023-05-14T02:02:17;31.25;;;19.85;;
11962;SDS011;62678;52.130;5.584;2023-05-14T02:04:44;28.15;;;19.05;;
11962;SDS011;62678;52.130;5.584;2023-05-14T02:07:11;27.38;;;18.73;;
11962;SDS011;62678;52.130;5.584;2023-05-14T02:09:38;26.25;;;18.73;;
11962;SDS011;62678;52.130;5.584;2023-05-14T02:12:09;26.33;;;18.75;;
11962;SDS011;62678;52.130;5.584;2023-05-14T02:14:36;25.10;;;18.63;;
11962;SDS011;62678;52.130;5.584;2023-05-14T02:17:03;28.60;;;18.92;;
11962;SDS011;62678;52.130;5.584;2023-05-14T02:19:30;26.40;;;18.80;;
11962;SDS011;62678;52.130;5.584;2023-05-14T02:21:57;26.63;;;19.00;;
11962;SDS011;62678;52.130;5.584;2023-05-14T02:24:25;24.45;;;18.70;;
11962;SDS011;62678;52.130;5.584;2023-05-14T02:26:51;25.42;;;20.00;;
11962;SDS011;62678;52.130;5.584;2023-05-14T02:29:19;26.42;;;19.48;;
11962;SDS011;62678;52.130;5.584;2023-05-14T02:31:46;29.77;;;21.73;;
11962;SDS011;62678;52.130;5.584;2023-05-14T02:34:13;27.40;;;21.30;;
11962;SDS011;62678;52.130;5.584;2023-05-14T02:36:40;27.38;;;20.27;;
11962;SDS011;62678;52.130;5.584;2023-05-14T02:39:07;31.60;;;20.70;;
11962;SDS011;62678;52.130;5.584;2023-05-14T02:41:33;27.25;;;21.13;;
11962;SDS011;62678;52.130;5.584;2023-05-14T02:44:00;29.08;;;21.02;;
11962;SDS011;62678;52.130;5.584;2023-05-14T02:46:29;28.98;;;20.88;;
11962;SDS011;62678;52.130;5.584;2023-05-14T02:48:56;31.20;;;21.08;;
11962;SDS011;62678;52.130;5.584;2023-05-14T02:51:23;33.92;;;21.40;;
11962;SDS011;62678;52.130;5.584;2023-05-14T02:53:51;30.73;;;22.05;;
11962;SDS011;62678;52.130;5.584;2023-05-14T02:56:17;29.40;;;22.08;;
11962;SDS011;62678;52.130;5.584;2023-05-14T02:58:45;33.90;;;23.00;;
11962;SDS011;62678;52.130;5.584;2023-05-14T03:01:11;31.98;;;22.75;;
11962;SDS011;62678;52.130;5.584;2023-05-14T03:03:40;36.17;;;24.48;;
11962;SDS011;62678;52.130;5.584;2023-05-14T03:06:07;33.45;;;23.58;;
11962;SDS011;62678;52.130;5.584;2023-05-14T03:08:34;34.42;;;25.05;;
11962;SDS011;62678;52.130;5.584;2023-05-14T03:11:01;31.15;;;24.05;;
11962;SDS011;62678;52.130;5.584;2023-05-14T03:13:27;35.90;;;23.98;;
11962;SDS011;62678;52.130;5.584;2023-05-14T03:15:54;34.65;;;24.15;;
11962;SDS011;62678;52.130;5.584;2023-05-14T03:18:21;31.50;;;24.25;;
11962;SDS011;62678;52.130;5.584;2023-05-14T03:20:49;34.85;;;24.73;;
11962;SDS011;62678;52.130;5.584;2023-05-14T03:23:16;36.25;;;25.52;;
11962;SDS011;62678;52.130;5.584;2023-05-14T03:25:43;36.42;;;25.08;;
11962;SDS011;62678;52.130;5.584;2023-05-14T03:28:09;39.65;;;26.23;;
11962;SDS011;62678;52.130;5.584;2023-05-14T03:30:36;35.83;;;25.35;;
11962;SDS011;62678;52.130;5.584;2023-05-14T03:33:03;36.17;;;25.90;;
11962;SDS011;62678;52.130;5.584;2023-05-14T03:35:30;39.20;;;26.52;;
11962;SDS011;62678;52.130;5.584;2023-05-14T03:37:58;34.72;;;25.23;;
11962;SDS011;62678;52.130;5.584;2023-05-14T03:40:25;39.88;;;25.83;;
11962;SDS011;62678;52.130;5.584;2023-05-14T03:42:52;37.25;;;25.20;;
11962;SDS011;62678;52.130;5.584;2023-05-14T03:45:20;41.65;;;25.60;;
11962;SDS011;62678;52.130;5.584;2023-05-14T03:47:46;38.40;;;25.52;;
11962;SDS011;62678;52.130;5.584;2023-05-14T03:50:13;38.20;;;25.58;;
11962;SDS011;62678;52.130;5.584;2023-05-14T03:52:40;35.72;;;25.52;;
11962;SDS011;62678;52.130;5.584;2023-05-14T03:55:09;37.10;;;27.17;;
11962;SDS011;62678;52.130;5.584;2023-05-14T03:57:36;41.90;;;26.35;;
11962;SDS011;62678;52.130;5.584;2023-05-14T04:00:03;34.78;;;25.83;;
11962;SDS011;62678;52.130;5.584;2023-05-14T04:02:30;41.30;;;27.38;;
11962;SDS011;62678;52.130;5.584;2023-05-14T04:04:57;42.10;;;27.08;;
11962;SDS011;62678;52.130;5.584;2023-05-14T04:07:24;40.03;;;27.50;;
11962;SDS011;62678;52.130;5.584;2023-05-14T04:09:50;37.80;;;27.27;;
11962;SDS011;62678;52.130;5.584;2023-05-14T04:12:19;36.22;;;26.20;;
11962;SDS011;62678;52.130;5.584;2023-05-14T04:14:46;36.88;;;26.67;;
11962;SDS011;62678;52.130;5.584;2023-05-14T04:17:12;36.13;;;27.08;;
11962;SDS011;62678;52.130;5.584;2023-05-14T04:19:39;37.80;;;25.38;;
11962;SDS011;62678;52.130;5.584;2023-05-14T04:22:06;38.00;;;25.50;;
11962;SDS011;62678;52.130;5.584;2023-05-14T04:24:33;39.78;;;26.20;;
11962;SDS011;62678;52.130;5.584;2023-05-14T04:27:00;40.92;;;26.05;;
11962;SDS011;62678;52.130;5.584;2023-05-14T04:29:28;34.38;;;25.20;;
11962;SDS011;62678;52.130;5.584;2023-05-14T04:31:55;37.55;;;24.52;;
11962;SDS011;62678;52.130;5.584;2023-05-14T04:34:21;38.90;;;24.92;;
11962;SDS011;62678;52.130;5.584;2023-05-14T04:36:48;36.67;;;24.98;;
11962;SDS011;62678;52.130;5.584;2023-05-14T04:39:16;37.53;;;24.90;;
11962;SDS011;62678;52.130;5.584;2023-05-14T04:41:43;33.17;;;24.17;;
11962;SDS011;62678;52.130;5.584;2023-05-14T04:44:11;35.97;;;24.60;;
11962;SDS011;62678;52.130;5.584;2023-05-14T04:46:39;34.53;;;24.38;;
11962;SDS011;62678;52.130;5.584;2023-05-14T04:49:07;34.22;;;22.80;;
11962;SDS011;62678;52.130;5.584;2023-05-14T04:51:35;32.40;;;22.27;;
11962;SDS011;62678;52.130;5.584;2023-05-14T04:54:02;32.10;;;22.20;;
11962;SDS011;62678;52.130;5.584;2023-05-14T04:56:30;32.20;;;22.05;;
11962;SDS011;62678;52.130;5.584;2023-05-14T04:58:57;27.90;;;20.63;;
11962;SDS011;62678;52.130;5.584;2023-05-14T05:01:23;26.73;;;19.98;;
11962;SDS011;62678;52.130;5.584;2023-05-14T05:03:52;30.65;;;21.10;;
11962;SDS011;62678;52.130;5.584;2023-05-14T05:06:19;31.77;;;21.55;;
11962;SDS011;62678;52.130;5.584;2023-05-14T05:08:46;28.95;;;21.08;;
11962;SDS011;62678;52.130;5.584;2023-05-14T05:11:13;31.02;;;21.27;;
11962;SDS011;62678;52.130;5.584;2023-05-14T05:13:41;29.10;;;21.45;;
11962;SDS011;62678;52.130;5.584;2023-05-14T05:16:08;32.67;;;21.27;;
11962;SDS011;62678;52.130;5.584;2023-05-14T05:18:35;30.75;;;21.02;;
11962;SDS011;62678;52.130;5.584;2023-05-14T05:21:04;27.15;;;19.63;;
11962;SDS011;62678;52.130;5.584;2023-05-14T05:23:32;28.27;;;20.15;;
11962;SDS011;62678;52.130;5.584;2023-05-14T05:25:59;27.73;;;19.02;;
11962;SDS011;62678;52.130;5.584;2023-05-14T05:28:26;30.40;;;19.10;;
11962;SDS011;62678;52.130;5.584;2023-05-14T05:30:53;25.92;;;18.92;;
11962;SDS011;62678;52.130;5.584;2023-05-14T05:33:20;26.60;;;18.98;;
11962;SDS011;62678;52.130;5.584;2023-05-14T05:35:47;24.42;;;18.83;;
11962;SDS011;62678;52.130;5.584;2023-05-14T05:38:16;24.70;;;17.50;;
11962;SDS011;62678;52.130;5.584;2023-05-14T05:40:43;25.73;;;17.58;;
11962;SDS011;62678;52.130;5.584;2023-05-14T05:43:10;29.88;;;17.95;;
11962;SDS011;62678;52.130;5.584;2023-05-14T05:45:38;25.33;;;17.60;;
11962;SDS011;62678;52.130;5.584;2023-05-14T05:48:05;22.52;;;17.58;;
11962;SDS011;62678;52.130;5.584;2023-05-14T05:50:32;24.42;;;17.77;;
11962;SDS011;62678;52.130;5.584;2023-05-14T05:52:59;21.52;;;17.15;;
11962;SDS011;62678;52.130;5.584;2023-05-14T05:55:28;26.23;;;18.05;;
11962;SDS011;62678;52.130;5.584;2023-05-14T05:57:55;19.88;;;16.40;;
11962;SDS011;62678;52.130;5.584;2023-05-14T06:00:22;23.98;;;16.70;;
11962;SDS011;62678;52.130;5.584;2023-05-14T06:02:50;21.23;;;16.73;;
11962;SDS011;62678;52.130;5.584;2023-05-14T06:05:17;20.75;;;16.65;;
11962;SDS011;62678;52.130;5.584;2023-05-14T06:07:43;25.77;;;17.27;;
11962;SDS011;62678;52.130;5.584;2023-05-14T06:10:10;25.27;;;17.85;;
11962;SDS011;62678;52.130;5.584;2023-05-14T06:12:38;23.65;;;16.45;;
11962;SDS011;62678;52.130;5.584;2023-05-14T06:15:06;21.88;;;15.35;;
11962;SDS011;62678;52.130;5.584;2023-05-14T06:17:33;20.13;;;15.55;;
11962;SDS011;62678;52.130;5.584;2023-05-14T06:20:00;23.33;;;16.10;;
11962;SDS011;62678;52.130;5.584;2023-05-14T06:22:29;22.80;;;16.30;;
11962;SDS011;62678;52.130;5.584;2023-05-14T06:24:56;25.77;;;17.27;;
11962;SDS011;62678;52.130;5.584;2023-05-14T06:27:23;21.90;;;16.58;;
11962;SDS011;62678;52.130;5.584;2023-05-14T06:29:51;23.15;;;16.55;;
11962;SDS011;62678;52.130;5.584;2023-05-14T06:32:18;20.52;;;15.38;;
11962;SDS011;62678;52.130;5.584;2023-05-14T06:34:45;18.27;;;14.77;;
11962;SDS011;62678;52.130;5.584;2023-05-14T06:37:11;20.90;;;14.85;;
11962;SDS011;62678;52.130;5.584;2023-05-14T06:39:38;20.60;;;14.20;;
11962;SDS011;62678;52.130;5.584;2023-05-14T06:42:08;17.80;;;14.82;;
11962;SDS011;62678;52.130;5.584;2023-05-14T06:44:34;18.33;;;14.73;;
11962;SDS011;62678;52.130;5.584;2023-05-14T06:47:03;18.25;;;14.50;;
11962;SDS011;62678;52.130;5.584;2023-05-14T06:49:32;15.93;;;14.13;;
11962;SDS011;62678;52.130;5.584;2023-05-14T06:51:59;19.23;;;13.70;;
11962;SDS011;62678;52.130;5.584;2023-05-14T06:54:26;17.95;;;13.63;;
11962;SDS011;62678;52.130;5.584;2023-05-14T06:56:53;20.90;;;13.73;;
11962;SDS011;62678;52.130;5.584;2023-05-14T06:59:20;17.02;;;13.80;;
11962;SDS011;62678;52.130;5.584;2023-05-14T07:01:47;16.02;;;13.50;;
11962;SDS011;62678;52.130;5.584;2023-05-14T07:04:15;20.95;;;14.15;;
11962;SDS011;62678;52.130;5.584;2023-05-14T07:06:44;18.27;;;13.40;;
11962;SDS011;62678;52.130;5.584;2023-05-14T07:09:11;17.38;;;12.68;;
11962;SDS011;62678;52.130;5.584;2023-05-14T07:11:38;19.27;;;12.80;;
11962;SDS011;62678;52.130;5.584;2023-05-14T07:14:05;15.20;;;13.15;;
11962;SDS011;62678;52.130;5.584;2023-05-14T07:16:32;17.40;;;13.13;;
11962;SDS011;62678;52.130;5.584;2023-05-14T07:19:01;20.65;;;12.85;;
11962;SDS011;62678;52.130;5.584;2023-05-14T07:21:29;17.80;;;12.90;;
11962;SDS011;62678;52.130;5.584;2023-05-14T07:23:56;17.60;;;12.93;;
11962;SDS011;62678;52.130;5.584;2023-05-14T07:26:23;18.17;;;13.07;;
11962;SDS011;62678;52.130;5.584;2023-05-14T07:28:52;17.25;;;12.55;;
11962;SDS011;62678;52.130;5.584;2023-05-14T07:31:19;17.77;;;13.30;;
11962;SDS011;62678;52.130;5.584;2023-05-14T07:33:46;18.40;;;13.30;;
11962;SDS011;62678;52.130;5.584;2023-05-14T07:36:12;17.05;;;12.95;;
11962;SDS011;62678;52.130;5.584;2023-05-14T07:38:42;18.73;;;13.30;;
11962;SDS011;62678;52.130;5.584;2023-05-14T07:41:09;19.08;;;14.00;;
11962;SDS011;62678;52.130;5.584;2023-05-14T07:43:36;18.35;;;13.10;;
11962;SDS011;62678;52.130;5.584;2023-05-14T07:46:04;16.45;;;13.40;;
11962;SDS011;62678;52.130;5.584;2023-05-14T07:48:31;14.13;;;12.55;;
11962;SDS011;62678;52.130;5.584;2023-05-14T07:50:58;21.05;;;13.30;;
11962;SDS011;62678;52.130;5.584;2023-05-14T07:53:25;16.83;;;12.13;;
11962;SDS011;62678;52.130;5.584;2023-05-14T07:55:56;15.98;;;12.60;;
11962;SDS011;62678;52.130;5.584;2023-05-14T07:58:24;15.13;;;12.20;;
11962;SDS011;62678;52.130;5.584;2023-05-14T08:00:51;15.57;;;12.63;;
11962;SDS011;62678;52.130;5.584;2023-05-14T08:03:18;13.73;;;11.63;;
11962;SDS011;62678;52.130;5.584;2023-05-14T08:05:45;17.35;;;12.30;;
11962;SDS011;62678;52.130;5.584;2023-05-14T08:08:12;15.48;;;11.82;;
11962;SDS011;62678;52.130;5.584;2023-05-14T08:10:39;17.70;;;11.77;;
11962;SDS011;62678;52.130;5.584;2023-05-14T08:13:07;18.02;;;12.43;;
11962;SDS011;62678;52.130;5.584;2023-05-14T08:15:34;16.60;;;12.55;;
11962;SDS011;62678;52.130;5.584;2023-05-14T08:18:00;18.80;;;12.52;;
11962;SDS011;62678;52.130;5.584;2023-05-14T08:20:28;16.20;;;13.07;;
11962;SDS011;62678;52.130;5.584;2023-05-14T08:22:55;16.35;;;12.00;;
11962;SDS011;62678;52.130;5.584;2023-05-14T08:25:22;19.67;;;12.80;;
11962;SDS011;62678;52.130;5.584;2023-05-14T08:27:49;20.55;;;12.32;;
11962;SDS011;62678;52.130;5.584;2023-05-14T08:30:22;21.08;;;12.68;;
11962;SDS011;62678;52.130;5.584;2023-05-14T08:32:49;15.50;;;11.32;;
11962;SDS011;62678;52.130;5.584;2023-05-14T08:35:16;16.30;;;11.55;;
11962;SDS011;62678;52.130;5.584;2023-05-14T08:37:44;16.55;;;10.77;;
11962;SDS011;62678;52.130;5.584;2023-05-14T08:40:14;14.98;;;10.63;;
11962;SDS011;62678;52.130;5.584;2023-05-14T08:42:41;14.85;;;11.10;;
11962;SDS011;62678;52.130;5.584;2023-05-14T08:45:10;14.40;;;10.88;;
11962;SDS011;62678;52.130;5.584;2023-05-14T08:47:43;16.40;;;11.02;;
11962;SDS011;62678;52.130;5.584;2023-05-14T08:50:13;14.70;;;10.93;;
11962;SDS011;62678;52.130;5.584;2023-05-14T08:52:40;17.02;;;11.15;;
11962;SDS011;62678;52.130;5.584;2023-05-14T08:55:07;15.27;;;11.18;;
11962;SDS011;62678;52.130;5.584;2023-05-14T08:57:37;16.42;;;11.05;;
11962;SDS011;62678;52.130;5.584;2023-05-14T09:00:07;14.73;;;10.57;;
11962;SDS011;62678;52.130;5.584;2023-05-14T09:02:36;18.13;;;10.07;;
11962;SDS011;62678;52.130;5.584;2023-05-14T09:05:10;17.88;;;10.50;;
11962;SDS011;62678;52.130;5.584;2023-05-14T09:07:37;16.20;;;9.85;;
11962;SDS011;62678;52.130;5.584;2023-05-14T09:10:05;16.25;;;10.23;;
11962;SDS011;62678;52.130;5.584;2023-05-14T09:12:33;11.73;;;8.75;;
11962;SDS011;62678;52.130;5.584;2023-05-14T09:15:00;17.92;;;10.75;;
11962;SDS011;62678;52.130;5.584;2023-05-14T09:17:27;14.60;;;9.88;;
11962;SDS011;62678;52.130;5.584;2023-05-14T09:19:54;11.18;;;9.10;;
11962;SDS011;62678;52.130;5.584;2023-05-14T09:22:23;13.43;;;9.43;;
11962;SDS011;62678;52.130;5.584;2023-05-14T09:25:02;16.05;;;9.38;;
11962;SDS011;62678;52.130;5.584;2023-05-14T09:27:36;15.93;;;10.80;;
11962;SDS011;62678;52.130;5.584;2023-05-14T09:30:03;18.27;;;11.35;;
11962;SDS011;62678;52.130;5.584;2023-05-14T09:32:35;16.05;;;10.45;;
11962;SDS011;62678;52.130;5.584;2023-05-14T09:35:10;13.18;;;9.15;;
11962;SDS011;62678;52.130;5.584;2023-05-14T09:37:41;15.95;;;9.68;;
11962;SDS011;62678;52.130;5.584;2023-05-14T09:40:09;14.35;;;10.35;;
11962;SDS011;62678;52.130;5.584;2023-05-14T09:42:36;14.50;;;9.38;;
11962;SDS011;62678;52.130;5.584;2023-05-14T09:45:05;11.18;;;9.75;;
11962;SDS011;62678;52.130;5.584;2023-05-14T09:47:32;14.13;;;10.00;;
11962;SDS011;62678;52.130;5.584;2023-05-14T09:49:59;14.45;;;9.38;;
11962;SDS011;62678;52.130;5.584;2023-05-14T09:52:26;15.57;;;9.70;;
11962;SDS011;62678;52.130;5.584;2023-05-14T09:54:55;16.42;;;9.82;;
11962;SDS011;62678;52.130;5.584;2023-05-14T09:57:21;17.92;;;10.48;;
11962;SDS011;62678;52.130;5.584;2023-05-14T09:59:48;14.52;;;9.95;;
11962;SDS011;62678;52.130;5.584;2023-05-14T10:02:15;16.38;;;11.57;;
11962;SDS011;62678;52.130;5.584;2023-05-14T10:04:47;15.05;;;10.13;;
11962;SDS011;62678;52.130;5.584;2023-05-14T10:07:16;14.68;;;11.52;;
11962;SDS011;62678;52.130;5.584;2023-05-14T10:09:47;15.55;;;11.07;;
11962;SDS011;62678;52.130;5.584;2023-05-14T10:12:16;18.70;;;10.98;;
11962;SDS011;62678;52.130;5.584;2023-05-14T10:14:49;17.17;;;10.88;;
11962;SDS011;62678;52.130;5.584;2023-05-14T10:17:20;13.80;;;9.45;;
11962;SDS011;62678;52.130;5.584;2023-05-14T10:19:49;14.82;;;9.57;;
11962;SDS011;62678;52.130;5.584;2023-05-14T10:22:21;14.68;;;10.30;;
11962;SDS011;62678;52.130;5.584;2023-05-14T10:24:49;13.95;;;9.90;;
11962;SDS011;62678;52.130;5.584;2023-05-14T10:27:20;14.20;;;9.50;;
11962;SDS011;62678;52.130;5.584;2023-05-14T10:29:50;14.85;;;10.30;;
11962;SDS011;62678;52.130;5.584;2023-05-14T10:32:19;17.08;;;10.30;;
11962;SDS011;62678;52.130;5.584;2023-05-14T10:34:48;14.85;;;9.13;;
11962;SDS011;62678;52.130;5.584;2023-05-14T10:37:16;12.43;;;8.48;;
11962;SDS011;62678;52.130;5.584;2023-05-14T10:39:44;14.68;;;8.07;;
11962;SDS011;62678;52.130;5.584;2023-05-14T10:42:13;14.27;;;8.80;;
11962;SDS011;62678;52.130;5.584;2023-05-14T10:44:48;12.13;;;8.43;;
11962;SDS011;62678;52.130;5.584;2023-05-14T10:47:17;13.02;;;7.93;;
11962;SDS011;62678;52.130;5.584;2023-05-14T10:49:45;11.52;;;7.20;;
11962;SDS011;62678;52.130;5.584;2023-05-14T10:52:17;9.15;;;6.88;;
11962;SDS011;62678;52.130;5.584;2023-05-14T10:54:48;12.98;;;6.78;;
11962;SDS011;62678;52.130;5.584;2023-05-14T10:57:16;11.57;;;6.75;;
11962;SDS011;62678;52.130;5.584;2023-05-14T10:59:45;8.80;;;6.82;;
11962;SDS011;62678;52.130;5.584;2023-05-14T11:02:21;10.07;;;7.80;;
11962;SDS011;62678;52.130;5.584;2023-05-14T11:04:53;12.65;;;7.85;;
11962;SDS011;62678;52.130;5.584;2023-05-14T11:07:23;9.38;;;7.20;;
11962;SDS011;62678;52.130;5.584;2023-05-14T11:09:53;11.43;;;7.80;;
11962;SDS011;62678;52.130;5.584;2023-05-14T11:12:25;10.93;;;6.65;;
11962;SDS011;62678;52.130;5.584;2023-05-14T11:14:53;10.82;;;6.78;;
11962;SDS011;62678;52.130;5.584;2023-05-14T11:17:23;10.90;;;6.93;;
11962;SDS011;62678;52.130;5.584;2023-05-14T11:19:50;9.30;;;6.25;;
11962;SDS011;62678;52.130;5.584;2023-05-14T11:22:17;14.55;;;7.25;;
11962;SDS011;62678;52.130;5.584;2023-05-14T11:24:44;9.95;;;6.55;;
11962;SDS011;62678;52.130;5.584;2023-05-14T11:27:11;9.90;;;6.78;;
11962;SDS011;62678;52.130;5.584;2023-05-14T11:29:39;9.60;;;6.65;;
11962;SDS011;62678;52.130;5.584;2023-05-14T11:32:14;11.32;;;6.10;;
11962;SDS011;62678;52.130;5.584;2023-05-14T11:34:42;9.52;;;5.70;;
11962;SDS011;62678;52.130;5.584;2023-05-14T11:37:12;10.35;;;7.00;;
11962;SDS011;62678;52.130;5.584;2023-05-14T11:39:44;11.13;;;6.20;;
11962;SDS011;62678;52.130;5.584;2023-05-14T11:42:16;13.38;;;6.78;;
11962;SDS011;62678;52.130;5.584;2023-05-14T11:44:44;10.60;;;6.60;;
11962;SDS011;62678;52.130;5.584;2023-05-14T11:47:14;9.25;;;6.75;;
11962;SDS011;62678;52.130;5.584;2023-05-14T11:49:45;11.77;;;6.35;;
11962;SDS011;62678;52.130;5.584;2023-05-14T11:52:15;10.48;;;7.32;;
11962;SDS011;62678;52.130;5.584;2023-05-14T11:54:45;11.98;;;7.40;;
11962;SDS011;62678;52.130;5.584;2023-05-14T11:57:17;13.25;;;8.00;;
11962;SDS011;62678;52.130;5.584;2023-05-14T11:59:45;10.25;;;6.80;;
11962;SDS011;62678;52.130;5.584;2023-05-14T12:02:14;11.98;;;6.82;;
11962;SDS011;62678;52.130;5.584;2023-05-14T12:04:44;14.63;;;7.78;;
11962;SDS011;62678;52.130;5.584;2023-05-14T12:07:15;10.38;;;6.55;;
11962;SDS011;62678;52.130;5.584;2023-05-14T12:09:44;12.85;;;6.90;;
11962;SDS011;62678;52.130;5.584;2023-05-14T12:12:13;9.15;;;6.75;;
11962;SDS011;62678;52.130;5.584;2023-05-14T12:14:41;11.63;;;6.05;;
11962;SDS011;62678;52.130;5.584;2023-05-14T12:17:14;10.60;;;6.28;;
11962;SDS011;62678;52.130;5.584;2023-05-14T12:19:42;9.38;;;5.85;;
11962;SDS011;62678;52.130;5.584;2023-05-14T12:22:13;10.20;;;6.35;;
11962;SDS011;62678;52.130;5.584;2023-05-14T12:24:41;11.60;;;5.95;;
11962;SDS011;62678;52.130;5.584;2023-05-14T12:27:09;7.60;;;5.53;;
11962;SDS011;62678;52.130;5.584;2023-05-14T12:29:36;10.38;;;6.63;;
11962;SDS011;62678;52.130;5.584;2023-05-14T12:32:06;9.60;;;5.88;;
11962;SDS011;62678;52.130;5.584;2023-05-14T12:34:36;8.18;;;5.50;;
11962;SDS011;62678;52.130;5.584;2023-05-14T12:37:04;10.10;;;6.28;;
11962;SDS011;62678;52.130;5.584;2023-05-14T12:39:31;8.60;;;5.90;;
11962;SDS011;62678;52.130;5.584;2023-05-14T12:41:59;9.63;;;4.65;;
11962;SDS011;62678;52.130;5.584;2023-05-14T12:44:26;13.52;;;5.28;;
11962;SDS011;62678;52.130;5.584;2023-05-14T12:46:53;11.00;;;6.60;;
11962;SDS011;62678;52.130;5.584;2023-05-14T12:49:20;11.68;;;5.57;;
11962;SDS011;62678;52.130;5.584;2023-05-14T12:51:48;13.07;;;6.63;;
11962;SDS011;62678;52.130;5.584;2023-05-14T12:54:15;11.07;;;5.57;;
11962;SDS011;62678;52.130;5.584;2023-05-14T12:56:42;9.02;;;6.30;;
11962;SDS011;62678;52.130;5.584;2023-05-14T12:59:08;11.27;;;5.35;;
11962;SDS011;62678;52.130;5.584;2023-05-14T13:01:35;12.15;;;5.97;;
11962;SDS011;62678;52.130;5.584;2023-05-14T13:04:02;10.68;;;5.80;;
11962;SDS011;62678;52.130;5.584;2023-05-14T13:06:30;8.75;;;4.95;;
11962;SDS011;62678;52.130;5.584;2023-05-14T13:08:58;8.90;;;5.00;;
11962;SDS011;62678;52.130;5.584;2023-05-14T13:11:26;10.02;;;5.93;;
11962;SDS011;62678;52.130;5.584;2023-05-14T13:13:55;11.45;;;5.03;;
11962;SDS011;62678;52.130;5.584;2023-05-14T13:16:22;9.02;;;5.68;;
11962;SDS011;62678;52.130;5.584;2023-05-14T13:18:50;12.05;;;5.47;;
11962;SDS011;62678;52.130;5.584;2023-05-14T13:21:17;7.32;;;4.95;;
11962;SDS011;62678;52.130;5.584;2023-05-14T13:23:44;10.35;;;5.25;;
11962;SDS011;62678;52.130;5.584;2023-05-14T13:26:15;9.95;;;5.20;;
11962;SDS011;62678;52.130;5.584;2023-05-14T13:28:42;11.95;;;5.00;;
11962;SDS011;62678;52.130;5.584;2023-05-14T13:31:09;10.35;;;5.00;;
11962;SDS011;62678;52.130;5.584;2023-05-14T13:33:39;7.90;;;4.97;;
11962;SDS011;62678;52.130;5.584;2023-05-14T13:36:07;11.35;;;4.68;;
11962;SDS011;62678;52.130;5.584;2023-05-14T13:38:36;8.98;;;4.10;;
11962;SDS011;62678;52.130;5.584;2023-05-14T13:41:03;9.70;;;4.20;;
11962;SDS011;62678;52.130;5.584;2023-05-14T13:43:32;8.25;;;3.83;;
11962;SDS011;62678;52.130;5.584;2023-05-14T13:45:59;8.00;;;3.95;;
11962;SDS011;62678;52.130;5.584;2023-05-14T13:48:26;8.55;;;3.70;;
11962;SDS011;62678;52.130;5.584;2023-05-14T13:50:54;7.68;;;4.05;;
11962;SDS011;62678;52.130;5.584;2023-05-14T13:53:22;9.02;;;4.85;;
11962;SDS011;62678;52.130;5.584;2023-05-14T13:55:49;9.50;;;4.53;;
11962;SDS011;62678;52.130;5.584;2023-05-14T13:58:20;7.05;;;4.25;;
11962;SDS011;62678;52.130;5.584;2023-05-14T14:00:48;12.88;;;5.70;;
11962;SDS011;62678;52.130;5.584;2023-05-14T14:03:15;9.90;;;5.45;;
11962;SDS011;62678;52.130;5.584;2023-05-14T14:05:42;9.48;;;5.20;;
11962;SDS011;62678;52.130;5.584;2023-05-14T14:08:09;8.20;;;4.47;;
11962;SDS011;62678;52.130;5.584;2023-05-14T14:10:36;6.05;;;4.10;;
11962;SDS011;62678;52.130;5.584;2023-05-14T14:13:05;10.50;;;4.65;;
11962;SDS011;62678;52.130;5.584;2023-05-14T14:15:32;8.82;;;4.47;;
11962;SDS011;62678;52.130;5.584;2023-05-14T14:18:00;11.63;;;4.72;;
11962;SDS011;62678;52.130;5.584;2023-05-14T14:20:27;7.80;;;4.93;;
11962;SDS011;62678;52.130;5.584;2023-05-14T14:22:55;12.18;;;5.15;;
11962;SDS011;62678;52.130;5.584;2023-05-14T14:25:22;12.65;;;5.40;;
11962;SDS011;62678;52.130;5.584;2023-05-14T14:27:49;11.13;;;4.90;;
11962;SDS011;62678;52.130;5.584;2023-05-14T14:30:16;8.95;;;5.10;;